createdAt,value
2022-11-06T00:00:51.337Z,8.70
2022-11-06T00:03:20.884Z,8.80
2022-11-06T00:06:08.857Z,8.80
2022-11-06T00:08:44.107Z,8.70
2022-11-06T00:11:18.205Z,8.70
2022-11-06T00:13:52.410Z,8.80
2022-11-06T00:16:22.686Z,8.70
2022-11-06T00:18:52.344Z,8.70
2022-11-06T00:21:27.408Z,8.70
2022-11-06T00:24:00.004Z,8.70
2022-11-06T00:26:31.070Z,8.70
2022-11-06T00:29:02.138Z,8.60
2022-11-06T00:31:35.543Z,8.60
2022-11-06T00:34:08.290Z,8.60
2022-11-06T00:36:37.865Z,8.50
2022-11-06T00:39:07.536Z,8.40
2022-11-06T00:41:37.009Z,8.40
2022-11-06T00:44:05.641Z,8.40
2022-11-06T00:46:34.351Z,8.40
2022-11-06T00:49:03.906Z,8.40
2022-11-06T00:51:40.760Z,8.30
2022-11-06T00:54:13.011Z,8.30
2022-11-06T00:56:43.102Z,8.30
2022-11-06T00:59:15.252Z,8.30
2022-11-06T01:01:46.188Z,8.30
2022-11-06T01:04:18.667Z,8.30
2022-11-06T01:06:50.704Z,8.20
2022-11-06T01:09:23.000Z,7.90
2022-11-06T01:12:13.344Z,7.10
2022-11-06T01:14:28.406Z,7.00
2022-11-06T01:16:58.519Z,7.40
2022-11-06T01:19:28.081Z,7.70
2022-11-06T01:21:57.991Z,7.80
2022-11-06T01:24:29.925Z,7.90
2022-11-06T01:29:30.771Z,8.00
2022-11-06T01:32:00.790Z,8.00
2022-11-06T01:34:30.612Z,7.20
2022-11-06T01:37:00.049Z,7.20
2022-11-06T01:39:29.618Z,7.00
2022-11-06T01:41:59.154Z,6.90
2022-11-06T01:44:43.438Z,7.00
2022-11-06T01:47:28.014Z,7.00
2022-11-06T01:50:03.806Z,7.00
2022-11-06T01:52:35.822Z,6.90
2022-11-06T01:55:17.112Z,7.10
2022-11-06T01:57:48.919Z,7.20
2022-11-06T02:00:20.263Z,7.20
2022-11-06T02:02:51.335Z,7.10
2022-11-06T02:05:21.774Z,7.10
2022-11-06T02:07:52.589Z,7.40
2022-11-06T02:10:22.149Z,7.50
2022-11-06T02:13:21.256Z,7.60
2022-11-06T02:16:05.768Z,7.60
2022-11-06T02:18:44.144Z,7.70
2022-11-06T02:21:25.579Z,7.70
2022-11-06T02:24:03.815Z,7.70
2022-11-06T02:26:55.346Z,7.70
2022-11-06T02:29:25.583Z,7.70
2022-11-06T02:31:57.126Z,7.60
2022-11-06T02:34:29.484Z,7.60
2022-11-06T02:37:04.689Z,7.70
2022-11-06T02:39:37.554Z,7.70
2022-11-06T02:42:09.699Z,7.70
2022-11-06T02:44:41.450Z,7.20
2022-11-06T02:47:13.251Z,7.00
2022-11-06T02:49:55.654Z,6.90
2022-11-06T02:52:29.801Z,7.10
2022-11-06T02:55:11.403Z,7.00
2022-11-06T02:57:43.953Z,6.60
2022-11-06T03:00:16.579Z,6.80
2022-11-06T03:02:54.786Z,7.00
2022-11-06T03:05:36.262Z,6.60
2022-11-06T03:08:15.443Z,6.40
2022-11-06T03:10:48.523Z,6.30
2022-11-06T03:13:27.013Z,6.70
2022-11-06T03:16:19.065Z,7.00
2022-11-06T03:19:09.869Z,7.00
2022-11-06T03:21:45.278Z,7.20
2022-11-06T03:25:47.663Z,7.20
2022-11-06T03:28:29.047Z,7.30
2022-11-06T03:31:01.571Z,7.30
2022-11-06T03:33:49.231Z,7.30
2022-11-06T03:36:21.749Z,7.30
2022-11-06T03:38:54.634Z,7.30
2022-11-06T03:41:37.054Z,7.30
2022-11-06T03:44:09.423Z,7.30
2022-11-06T03:46:41.756Z,7.30
2022-11-06T03:49:14.584Z,7.20
2022-11-06T03:51:58.849Z,7.20
2022-11-06T03:54:46.679Z,7.20
2022-11-06T03:57:25.234Z,7.30
2022-11-06T03:59:57.764Z,7.20
2022-11-06T04:02:28.036Z,7.10
2022-11-06T04:05:00.859Z,7.20
2022-11-06T04:07:33.348Z,7.20
2022-11-06T04:10:21.821Z,6.60
2022-11-06T04:13:11.230Z,6.20
2022-11-06T04:15:46.492Z,5.90
2022-11-06T04:18:20.874Z,6.00
2022-11-06T04:21:25.011Z,6.10
2022-11-06T04:24:30.390Z,6.40
2022-11-06T04:27:00.587Z,6.40
2022-11-06T04:29:39.047Z,6.40
2022-11-06T04:32:14.256Z,6.30
2022-11-06T04:34:58.723Z,6.40
2022-11-06T04:37:36.990Z,6.50
2022-11-06T04:40:12.341Z,6.70
2022-11-06T04:42:50.500Z,6.80
2022-11-06T04:45:22.981Z,6.80
2022-11-06T04:47:56.343Z,6.90
2022-11-06T04:50:28.637Z,6.90
2022-11-06T04:53:00.539Z,6.80
2022-11-06T04:55:31.712Z,6.90
2022-11-06T04:58:01.345Z,6.80
2022-11-06T05:00:30.854Z,6.80
2022-11-06T05:03:00.951Z,6.80
2022-11-06T05:05:30.361Z,6.80
2022-11-06T05:07:59.881Z,6.70
2022-11-06T05:10:29.330Z,6.70
2022-11-06T05:12:58.758Z,6.60
2022-11-06T05:15:28.762Z,6.70
2022-11-06T05:17:59.155Z,6.70
2022-11-06T05:20:28.715Z,6.60
2022-11-06T05:23:01.175Z,6.60
2022-11-06T05:25:36.352Z,6.60
2022-11-06T05:28:08.451Z,6.50
2022-11-06T05:30:38.516Z,6.60
2022-11-06T05:33:07.955Z,6.60
2022-11-06T05:35:37.377Z,6.50
2022-11-06T05:38:06.802Z,6.00
2022-11-06T05:40:36.290Z,5.50
2022-11-06T05:43:05.714Z,5.80
2022-11-06T05:45:35.215Z,6.10
2022-11-06T05:48:04.765Z,6.30
2022-11-06T05:50:34.204Z,6.20
2022-11-06T05:53:05.772Z,6.20
2022-11-06T05:55:35.277Z,6.00
2022-11-06T05:58:04.760Z,5.40
2022-11-06T06:00:34.223Z,5.10
2022-11-06T06:03:04.333Z,5.00
2022-11-06T06:05:33.817Z,5.00
2022-11-06T06:08:03.417Z,5.30
2022-11-06T06:10:32.843Z,5.50
2022-11-06T06:13:02.261Z,5.20
2022-11-06T06:15:31.737Z,5.10
2022-11-06T06:18:01.230Z,5.30
2022-11-06T06:20:30.686Z,5.60
2022-11-06T06:23:00.948Z,5.70
2022-11-06T06:25:31.254Z,5.90
2022-11-06T06:28:00.772Z,5.90
2022-11-06T06:30:30.374Z,6.00
2022-11-06T06:33:02.846Z,6.00
2022-11-06T06:35:32.588Z,6.00
2022-11-06T06:38:02.066Z,6.10
2022-11-06T06:40:31.489Z,6.10
2022-11-06T06:43:01.053Z,6.10
2022-11-06T06:45:30.475Z,6.10
2022-11-06T06:48:06.884Z,6.10
2022-11-06T06:50:36.382Z,6.10
2022-11-06T06:53:05.811Z,6.10
2022-11-06T06:55:35.314Z,5.40
2022-11-06T06:58:05.198Z,5.50
2022-11-06T07:00:34.706Z,5.80
2022-11-06T07:03:04.602Z,5.80
2022-11-06T07:05:34.181Z,5.70
2022-11-06T07:08:03.848Z,5.40
2022-11-06T07:10:33.710Z,5.30
2022-11-06T07:13:05.100Z,5.50
2022-11-06T07:15:34.607Z,5.80
2022-11-06T07:18:05.966Z,5.90
2022-11-06T07:20:36.611Z,6.10
2022-11-06T07:23:09.661Z,6.00
2022-11-06T07:25:38.543Z,5.60
2022-11-06T07:28:09.634Z,5.60
2022-11-06T07:30:39.130Z,5.80
2022-11-06T07:33:08.577Z,6.40
2022-11-06T07:35:38.065Z,6.90
2022-11-06T07:38:08.712Z,7.50
2022-11-06T07:40:38.231Z,8.10
2022-11-06T07:43:12.316Z,7.90
2022-11-06T07:45:41.816Z,8.30
2022-11-06T07:48:11.582Z,8.00
2022-11-06T07:50:41.256Z,8.40
2022-11-06T07:53:10.833Z,9.10
2022-11-06T07:55:42.352Z,10.30
2022-11-06T07:58:11.920Z,10.40
2022-11-06T08:00:41.768Z,11.00
2022-11-06T08:03:11.255Z,11.10
2022-11-06T08:05:40.692Z,11.70
2022-11-06T08:08:10.855Z,12.30
2022-11-06T08:10:43.034Z,12.20
2022-11-06T08:13:14.298Z,12.20
2022-11-06T08:15:44.205Z,11.90
2022-11-06T08:18:13.950Z,11.70
2022-11-06T08:20:43.722Z,12.60
2022-11-06T08:23:14.426Z,13.20
2022-11-06T08:25:43.872Z,13.30
2022-11-06T08:28:13.458Z,13.20
2022-11-06T08:30:43.212Z,13.30
2022-11-06T08:33:13.177Z,13.60
2022-11-06T08:35:42.609Z,13.80
2022-11-06T08:38:12.794Z,14.50
2022-11-06T08:40:42.626Z,14.50
2022-11-06T08:43:12.686Z,14.10
2022-11-06T08:45:43.849Z,14.30
2022-11-06T08:48:13.566Z,14.60
2022-11-06T08:50:43.091Z,15.00
2022-11-06T08:53:13.135Z,15.20
2022-11-06T08:55:42.950Z,15.10
2022-11-06T08:58:14.140Z,14.70
2022-11-06T09:00:43.925Z,14.70
2022-11-06T09:03:16.388Z,15.00
2022-11-06T09:05:45.886Z,15.10
2022-11-06T09:08:16.190Z,14.70
2022-11-06T09:10:46.012Z,15.50
2022-11-06T09:13:15.715Z,15.00
2022-11-06T09:15:46.261Z,15.70
2022-11-06T09:18:15.769Z,14.80
2022-11-06T09:20:45.252Z,13.80
2022-11-06T09:23:15.463Z,14.10
2022-11-06T09:25:45.100Z,14.30
2022-11-06T09:28:14.602Z,14.30
2022-11-06T09:30:44.127Z,15.00
2022-11-06T09:33:14.852Z,13.50
2022-11-06T09:35:44.789Z,14.00
2022-11-06T09:38:19.264Z,14.00
2022-11-06T09:40:51.879Z,14.30
2022-11-06T09:44:04.496Z,14.40
2022-11-06T09:46:15.833Z,14.10
2022-11-06T09:48:48.678Z,14.10
2022-11-06T09:51:21.708Z,13.80
2022-11-06T09:54:06.552Z,15.70
2022-11-06T09:56:38.721Z,16.20
2022-11-06T09:59:11.209Z,16.20
2022-11-06T10:01:46.809Z,15.90
2022-11-06T10:04:25.238Z,15.80
2022-11-06T10:06:55.578Z,16.20
2022-11-06T10:09:25.137Z,16.80
2022-11-06T10:12:06.468Z,17.60
2022-11-06T10:14:39.529Z,17.10
2022-11-06T10:17:12.437Z,18.50
2022-11-06T10:19:59.851Z,17.20
2022-11-06T10:22:43.048Z,16.80
2022-11-06T10:25:24.131Z,17.40
2022-11-06T10:28:05.953Z,18.40
2022-11-06T10:30:47.059Z,18.80
2022-11-06T10:33:31.469Z,19.10
2022-11-06T10:36:12.673Z,18.00
2022-11-06T10:38:46.817Z,17.60
2022-11-06T10:41:19.328Z,17.90
2022-11-06T10:43:57.819Z,17.30
2022-11-06T10:46:32.865Z,16.80
2022-11-06T10:49:04.763Z,17.50
2022-11-06T10:51:55.385Z,17.60
2022-11-06T10:54:41.069Z,18.40
2022-11-06T10:57:28.053Z,18.40
2022-11-06T10:59:56.876Z,18.30
2022-11-06T11:02:26.999Z,19.10
2022-11-06T11:04:58.231Z,18.30
2022-11-06T11:07:32.807Z,19.20
2022-11-06T11:10:21.997Z,18.30
2022-11-06T11:12:54.041Z,18.60
2022-11-06T11:15:26.210Z,17.10
2022-11-06T11:18:14.294Z,17.70
2022-11-06T11:20:47.486Z,18.60
2022-11-06T11:23:25.964Z,19.50
2022-11-06T11:25:58.495Z,18.90
2022-11-06T11:28:36.862Z,18.60
2022-11-06T11:31:15.499Z,19.60
2022-11-06T11:33:56.707Z,19.70
2022-11-06T11:36:26.221Z,19.40
2022-11-06T11:38:55.799Z,18.40
2022-11-06T11:41:26.971Z,19.00
2022-11-06T11:44:07.808Z,18.90
2022-11-06T11:46:40.341Z,19.40
2022-11-06T11:49:13.045Z,19.50
2022-11-06T11:51:45.630Z,19.20
2022-11-06T11:54:15.824Z,17.90
2022-11-06T11:57:08.805Z,18.20
2022-11-06T11:59:27.864Z,19.10
2022-11-06T12:02:03.432Z,18.40
2022-11-06T12:04:39.051Z,19.00
2022-11-06T12:07:11.125Z,18.40
2022-11-06T12:09:45.832Z,18.60
2022-11-06T12:12:28.754Z,18.90
2022-11-06T12:15:08.092Z,19.10
2022-11-06T12:17:40.861Z,19.10
2022-11-06T12:20:13.367Z,19.30
2022-11-06T12:22:45.915Z,19.30
2022-11-06T12:25:30.439Z,19.10
2022-11-06T12:28:02.624Z,19.20
2022-11-06T12:30:34.090Z,19.10
2022-11-06T12:33:27.351Z,18.90
2022-11-06T12:35:55.879Z,19.00
2022-11-06T12:38:43.363Z,19.30
2022-11-06T12:41:16.211Z,19.20
2022-11-06T12:43:48.437Z,19.10
2022-11-06T12:46:36.059Z,18.90
2022-11-06T12:49:29.693Z,18.70
2022-11-06T12:52:21.922Z,18.70
2022-11-06T12:55:14.042Z,18.50
2022-11-06T12:57:56.971Z,18.60
2022-11-06T13:00:31.790Z,18.50
2022-11-06T13:03:09.759Z,18.30
2022-11-06T13:06:12.969Z,18.30
2022-11-06T13:09:03.205Z,18.20
2022-11-06T13:11:39.394Z,18.30
2022-11-06T13:14:20.472Z,18.10
2022-11-06T13:16:53.143Z,18.10
2022-11-06T13:19:40.413Z,18.10
2022-11-06T13:22:18.468Z,18.00
2022-11-06T13:24:56.860Z,18.30
2022-11-06T13:27:43.155Z,18.20
2022-11-06T13:30:15.712Z,18.40
2022-11-06T13:32:53.512Z,18.20
2022-11-06T13:35:22.384Z,18.20
2022-11-06T13:37:54.379Z,18.20
2022-11-06T13:40:32.401Z,18.10
2022-11-06T13:43:07.757Z,18.10
2022-11-06T13:45:55.027Z,18.20
2022-11-06T13:48:37.238Z,18.10
2022-11-06T13:51:07.742Z,18.10
2022-11-06T13:53:59.656Z,18.10
2022-11-06T13:56:56.114Z,18.10
2022-11-06T13:59:34.206Z,18.10
2022-11-06T14:02:14.417Z,18.20
2022-11-06T14:05:03.744Z,18.10
2022-11-06T14:07:35.044Z,18.10
2022-11-06T14:10:05.620Z,18.10
2022-11-06T14:12:35.840Z,18.00
2022-11-06T14:15:17.496Z,17.90
2022-11-06T14:18:02.254Z,17.90
2022-11-06T14:20:40.393Z,17.70
2022-11-06T14:23:32.528Z,17.70
2022-11-06T14:26:05.164Z,17.80
2022-11-06T14:28:43.017Z,17.90
2022-11-06T14:31:17.961Z,17.90
2022-11-06T14:34:00.215Z,17.80
2022-11-06T14:36:33.492Z,17.70
2022-11-06T14:39:04.142Z,17.60
2022-11-06T14:41:40.552Z,17.70
2022-11-06T14:44:18.676Z,17.70
2022-11-06T14:46:54.115Z,17.70
2022-11-06T14:49:32.513Z,17.60
2022-11-06T14:52:05.346Z,17.50
2022-11-06T14:54:37.741Z,17.50
2022-11-06T14:57:09.212Z,17.40
2022-11-06T14:59:41.392Z,17.40
2022-11-06T15:02:25.654Z,17.50
2022-11-06T15:05:10.130Z,17.50
2022-11-06T15:08:04.384Z,17.60
2022-11-06T15:10:45.445Z,17.50
2022-11-06T15:13:21.690Z,17.50
2022-11-06T15:15:54.287Z,17.60
2022-11-06T15:18:26.744Z,17.60
2022-11-06T15:21:02.004Z,17.50
2022-11-06T15:23:59.197Z,17.50
2022-11-06T15:26:31.695Z,17.40
2022-11-06T15:29:06.977Z,17.30
2022-11-06T15:31:38.275Z,17.30
2022-11-06T15:34:10.773Z,17.20
2022-11-06T15:36:43.068Z,17.20
2022-11-06T15:39:30.108Z,17.20
2022-11-06T15:42:00.598Z,17.10
2022-11-06T15:44:30.158Z,17.10
2022-11-06T15:47:01.418Z,17.00
2022-11-06T15:49:30.978Z,16.90
2022-11-06T15:52:02.993Z,16.90
2022-11-06T15:54:41.335Z,16.80
2022-11-06T15:57:16.964Z,16.80
2022-11-06T15:59:46.460Z,16.70
2022-11-06T16:02:22.817Z,16.70
2022-11-06T16:04:53.307Z,16.70
2022-11-06T16:07:23.011Z,16.60
2022-11-06T16:09:54.446Z,16.60
2022-11-06T16:12:24.292Z,16.50
2022-11-06T16:14:53.850Z,16.40
2022-11-06T16:17:27.950Z,16.40
2022-11-06T16:20:00.742Z,16.40
2022-11-06T16:22:34.683Z,16.30
2022-11-06T16:25:07.438Z,16.30
2022-11-06T16:27:41.076Z,16.20
2022-11-06T16:30:13.632Z,16.10
2022-11-06T16:32:43.518Z,16.10
2022-11-06T16:35:36.449Z,16.10
2022-11-06T16:40:56.562Z,15.90
2022-11-06T16:43:26.013Z,15.80
2022-11-06T16:46:03.041Z,15.80
2022-11-06T16:48:45.136Z,15.70
2022-11-06T16:51:17.680Z,15.70
2022-11-06T16:53:55.496Z,15.60
2022-11-06T16:56:28.545Z,15.50
2022-11-06T16:59:01.317Z,15.50
2022-11-06T17:01:39.021Z,15.40
2022-11-06T17:04:23.602Z,15.30
2022-11-06T17:06:55.354Z,15.20
2022-11-06T17:09:36.144Z,15.20
2022-11-06T17:12:08.660Z,15.10
2022-11-06T17:14:38.157Z,15.00
2022-11-06T17:17:07.583Z,15.00
2022-11-06T17:19:37.006Z,14.90
2022-11-06T17:22:09.532Z,14.80
2022-11-06T17:24:38.981Z,14.80
2022-11-06T17:27:08.465Z,14.80
2022-11-06T17:29:38.824Z,14.70
2022-11-06T17:32:08.322Z,14.70
2022-11-06T17:34:37.823Z,14.60
2022-11-06T17:37:07.354Z,14.60
2022-11-06T17:39:36.788Z,14.50
2022-11-06T17:42:06.286Z,14.50
2022-11-06T17:44:35.869Z,14.50
2022-11-06T17:47:06.457Z,14.50
2022-11-06T17:49:35.886Z,14.40
2022-11-06T17:52:06.200Z,14.40
2022-11-06T17:54:37.472Z,14.30
2022-11-06T17:57:09.499Z,14.30
2022-11-06T17:59:38.921Z,14.20
2022-11-06T18:02:08.626Z,14.20
2022-11-06T18:04:40.281Z,14.10
2022-11-06T18:07:10.289Z,14.00
2022-11-06T18:09:40.298Z,14.00
2022-11-06T18:12:12.917Z,14.00
2022-11-06T18:14:42.414Z,14.00
2022-11-06T18:17:12.632Z,14.00
2022-11-06T18:19:42.079Z,14.00
2022-11-06T18:22:11.599Z,14.00
2022-11-06T18:24:41.714Z,14.00
2022-11-06T18:27:11.251Z,14.00
2022-11-06T18:29:40.686Z,13.90
2022-11-06T18:32:10.259Z,13.90
2022-11-06T18:34:40.365Z,13.90
2022-11-06T18:37:09.807Z,13.80
2022-11-06T18:39:39.807Z,13.80
2022-11-06T18:42:09.271Z,13.70
2022-11-06T18:44:40.346Z,13.70
2022-11-06T18:47:09.850Z,13.60
2022-11-06T18:49:39.451Z,13.60
2022-11-06T18:52:08.887Z,13.60
2022-11-06T18:54:39.742Z,13.50
2022-11-06T18:57:09.247Z,13.60
2022-11-06T18:59:39.423Z,13.50
2022-11-06T19:02:11.707Z,13.50
2022-11-06T19:04:42.487Z,13.50
2022-11-06T19:07:11.952Z,13.60
2022-11-06T19:09:41.395Z,13.50
2022-11-06T19:12:10.849Z,13.50
2022-11-06T19:14:40.354Z,13.50
2022-11-06T19:17:09.790Z,13.50
2022-11-06T19:19:39.328Z,13.40
2022-11-06T19:22:10.615Z,13.40
2022-11-06T19:24:40.107Z,13.40
2022-11-06T19:27:09.604Z,13.40
2022-11-06T19:29:39.111Z,13.30
2022-11-06T19:32:08.544Z,13.30
2022-11-06T19:34:39.332Z,13.30
2022-11-06T19:37:08.952Z,13.30
2022-11-06T19:39:38.410Z,13.20
2022-11-06T19:42:07.846Z,13.20
2022-11-06T19:44:37.355Z,13.10
2022-11-06T19:47:06.777Z,13.10
2022-11-06T19:49:37.139Z,13.10
2022-11-06T19:52:42.589Z,13.10
2022-11-06T19:54:38.596Z,13.00
2022-11-06T19:57:28.246Z,13.00
2022-11-06T19:59:39.137Z,13.00
2022-11-06T20:02:11.921Z,12.90
2022-11-06T20:04:45.344Z,12.90
2022-11-06T20:07:16.483Z,12.90
2022-11-06T20:09:46.164Z,12.80
2022-11-06T20:12:16.590Z,12.80
2022-11-06T20:14:47.667Z,12.80
2022-11-06T20:17:18.242Z,12.70
2022-11-06T20:19:47.686Z,12.70
2022-11-06T20:22:17.947Z,12.70
2022-11-06T20:24:47.374Z,12.70
2022-11-06T20:27:16.832Z,12.70
2022-11-06T20:29:46.465Z,12.60
2022-11-06T20:32:19.063Z,12.60
2022-11-06T20:34:47.826Z,12.60
2022-11-06T20:37:17.254Z,12.50
2022-11-06T20:39:46.705Z,12.50
2022-11-06T20:42:16.161Z,12.50
2022-11-06T20:44:45.676Z,12.40
2022-11-06T20:47:15.186Z,12.40
2022-11-06T20:49:44.695Z,12.40
2022-11-06T20:52:15.307Z,12.20
2022-11-06T20:54:47.436Z,12.20
2022-11-06T20:57:18.557Z,12.20
2022-11-06T20:59:48.044Z,12.30
2022-11-06T21:02:17.675Z,12.20
2022-11-06T21:04:47.289Z,12.30
2022-11-06T21:07:17.067Z,12.20
2022-11-06T21:09:46.499Z,12.20
2022-11-06T21:12:15.931Z,12.10
2022-11-06T21:14:45.454Z,12.10
2022-11-06T21:17:14.890Z,12.10
2022-11-06T21:19:44.318Z,12.10
2022-11-06T21:22:14.428Z,12.10
2022-11-06T21:24:43.929Z,12.10
2022-11-06T21:27:13.368Z,12.00
2022-11-06T21:29:43.612Z,11.90
2022-11-06T21:32:13.047Z,11.90
2022-11-06T21:34:42.696Z,11.90
2022-11-06T21:37:12.155Z,11.80
2022-11-06T21:39:41.708Z,11.90
2022-11-06T21:42:11.211Z,11.90
2022-11-06T21:44:40.667Z,12.00
2022-11-06T21:47:10.119Z,12.00
2022-11-06T21:49:39.544Z,11.90
2022-11-06T21:52:29.405Z,11.80
2022-11-06T21:55:15.785Z,11.80
2022-11-06T21:57:45.327Z,11.80
2022-11-06T22:00:15.870Z,11.80
2022-11-06T22:02:45.766Z,11.70
2022-11-06T22:05:15.302Z,11.70
2022-11-06T22:07:45.135Z,11.70
2022-11-06T22:10:14.806Z,11.70
2022-11-06T22:12:44.315Z,11.70
2022-11-06T22:15:14.931Z,11.60
2022-11-06T22:17:44.375Z,11.60
2022-11-06T22:20:13.885Z,11.50
2022-11-06T22:22:43.461Z,11.50
2022-11-06T22:25:12.970Z,11.50
2022-11-06T22:27:42.486Z,11.50
2022-11-06T22:30:13.891Z,11.50
2022-11-06T22:32:43.321Z,11.40
2022-11-06T22:35:12.750Z,11.40
2022-11-06T22:37:42.309Z,11.40
2022-11-06T22:40:12.863Z,11.40
2022-11-06T22:42:45.814Z,11.40
2022-11-06T22:45:13.393Z,11.40
2022-11-06T22:47:43.513Z,11.30
2022-11-06T22:50:12.947Z,11.30
2022-11-06T22:52:42.387Z,11.30
2022-11-06T22:55:12.036Z,11.30
2022-11-06T22:57:41.463Z,11.30
2022-11-06T23:00:13.578Z,11.20
2022-11-06T23:02:43.036Z,11.20
2022-11-06T23:05:12.595Z,11.20
2022-11-06T23:07:42.036Z,11.20
2022-11-06T23:10:11.720Z,11.20
2022-11-06T23:12:41.177Z,11.20
2022-11-06T23:15:11.943Z,11.20
2022-11-06T23:17:41.404Z,11.10
2022-11-06T23:20:12.425Z,11.10
2022-11-06T23:22:41.909Z,11.10
2022-11-06T23:25:13.671Z,11.10
2022-11-06T23:27:49.441Z,11.00
2022-11-06T23:30:16.564Z,11.00
2022-11-06T23:32:46.091Z,11.00
2022-11-06T23:35:17.092Z,11.00
2022-11-06T23:37:46.934Z,11.00
2022-11-06T23:40:16.438Z,11.00
2022-11-06T23:42:47.431Z,11.00
2022-11-06T23:45:35.639Z,10.90
2022-11-06T23:48:08.572Z,10.90
2022-11-06T23:50:36.515Z,10.90
2022-11-06T23:53:05.980Z,10.90
2022-11-06T23:55:37.056Z,10.90
2022-11-06T23:58:06.615Z,10.90
